logo
Search for airport 
image banner adimage banner adimage banner ad
image banner ad

EHS025 - Slootdorp

Located in , Netherlands

ICAO - , IATA -

Data provided by Airmate  

General information

Coordinates: N52°50'7" E4°57'1"
Elevation is feet MSL.
 
View others Airports in Noord-Holland

Operational data

Special qualification required
Current time UTC:
Current local time:
Weather at : EHKD - Den Helder/De Kooy ( 15 km )
METAR: EHKD 231755Z AUTO 30009KT 250V340 9999 FEW013 SCT016 OVC025 18/14 Q1018 BLU NOSIG
TAF: TAF COR EHKD 231631Z 2317/2405 32012KT 9999 SCT012 BKN016 BECMG 2321/2323 SCT020
View NOTAMs / SUP AIP / TFR affecting this airport [VIEW]
Communications frequencies: [VIEW]

Runways:

Airport contact information

Address: Netherlands

Satellite view of EHS025